Time;durP1;ratioP1;P1;durP2;ratioP2;P2;SDS_P1;SDS_P2;PMS_P1;PMS_P2;Temp;Humidity;BMP_temperature;BMP_pressure;BME280_temperature;BME280_humidity;BME280_pressure;Samples;Min_cycle;Max_cycle;Signal;HPM_P1;HPM_P2
2022/05/15 00:01:25;;;;;;;3.10;2.00;;;11.90;19.40;;;;;;5100491;27;34187;-74
2022/05/15 00:03:51;;;;;;;2.53;2.28;;;11.80;19.40;;;;;;5092594;27;34168;-74
2022/05/15 00:06:18;;;;;;;3.92;1.95;;;11.80;19.40;;;;;;5145465;27;34125;-74
2022/05/15 00:08:44;;;;;;;2.80;1.95;;;11.70;19.50;;;;;;5110320;27;35744;-74
2022/05/15 00:11:12;;;;;;;3.05;2.10;;;11.70;19.70;;;;;;5110127;27;34375;-74
2022/05/15 00:13:39;;;;;;;3.30;2.10;;;11.70;20.00;;;;;;5127514;27;34403;-74
2022/05/15 00:16:06;;;;;;;4.15;2.08;;;11.60;19.80;;;;;;5089251;28;34126;-74
2022/05/15 00:18:33;;;;;;;2.33;2.03;;;11.50;19.90;;;;;;5069172;28;35948;-74
2022/05/15 00:20:59;;;;;;;4.47;2.28;;;11.50;20.00;;;;;;5089370;28;34233;-74
2022/05/15 00:23:25;;;;;;;8.02;2.28;;;11.40;20.00;;;;;;5086084;28;34259;-74
2022/05/15 00:25:52;;;;;;;3.30;2.03;;;11.40;20.00;;;;;;5102639;27;34501;-74
2022/05/15 00:28:18;;;;;;;3.20;2.22;;;11.40;20.10;;;;;;5102291;27;36403;-74
2022/05/15 00:30:45;;;;;;;2.10;1.98;;;11.40;20.20;;;;;;5076591;28;34446;-74
2022/05/15 00:33:11;;;;;;;4.45;2.10;;;11.30;20.40;;;;;;5089092;28;34175;-74
2022/05/15 00:35:37;;;;;;;5.28;2.50;;;11.30;20.50;;;;;;5061508;28;34390;-74
2022/05/15 00:38:05;;;;;;;3.13;1.70;;;11.30;20.60;;;;;;5085247;28;36306;-74
2022/05/15 00:40:33;;;;;;;2.83;2.03;;;11.20;20.70;;;;;;5088793;28;34155;-74
2022/05/15 00:43:00;;;;;;;3.90;2.08;;;11.20;20.60;;;;;;5089871;28;34377;-74
2022/05/15 00:45:26;;;;;;;3.90;2.13;;;11.20;20.70;;;;;;5107100;28;34110;-74
2022/05/15 00:47:52;;;;;;;3.17;2.47;;;11.20;20.90;;;;;;5089102;28;35712;-74
2022/05/15 00:50:25;;;;;;;2.90;1.98;;;11.10;20.90;;;;;;5070747;28;34137;-74
2022/05/15 00:52:55;;;;;;;7.22;2.20;;;11.10;21.40;;;;;;5052271;28;34229;-74
2022/05/15 00:55:27;;;;;;;5.07;2.17;;;11.00;21.30;;;;;;5068248;28;34473;-74
2022/05/15 00:57:57;;;;;;;3.22;2.20;;;11.00;21.90;;;;;;5079523;28;34297;-74
2022/05/15 01:00:27;;;;;;;2.60;2.33;;;11.00;21.30;;;;;;5101924;28;34274;-73
2022/05/15 01:03:03;;;;;;;5.35;2.47;;;10.90;22.00;;;;;;5051987;28;34295;-74
2022/05/15 01:05:29;;;;;;;6.05;2.50;;;10.90;21.60;;;;;;5116459;27;34221;-74
2022/05/15 01:07:55;;;;;;;4.68;2.28;;;10.90;21.20;;;;;;5120634;27;35838;-74
2022/05/15 01:10:21;;;;;;;6.18;2.35;;;10.90;21.90;;;;;;5088419;28;34194;-74
2022/05/15 01:12:48;;;;;;;4.43;2.10;;;10.80;21.30;;;;;;5089146;28;34227;-74
2022/05/15 01:15:20;;;;;;;3.20;2.05;;;10.80;21.30;;;;;;5089100;28;34457;-75
2022/05/15 01:17:46;;;;;;;4.40;2.50;;;10.70;22.10;;;;;;5076317;27;36286;-74
2022/05/15 01:20:14;;;;;;;2.63;2.08;;;10.60;21.40;;;;;;5092671;27;34064;-74
2022/05/15 01:22:40;;;;;;;3.63;2.10;;;10.60;21.60;;;;;;5109746;27;34047;-75
2022/05/15 01:25:15;;;;;;;2.63;2.33;;;10.50;21.70;;;;;;5118728;27;34162;-74
2022/05/15 01:27:51;;;;;;;3.83;2.47;;;10.50;22.80;;;;;;5093172;27;36309;-74
2022/05/15 01:30:18;;;;;;;3.42;2.70;;;10.40;23.50;;;;;;5118473;27;34103;-74
2022/05/15 01:32:44;;;;;;;4.22;2.13;;;10.40;22.00;;;;;;5126311;27;34388;-75
2022/05/15 01:35:10;;;;;;;3.35;2.60;;;10.40;22.00;;;;;;5105527;27;34106;-75
2022/05/15 01:37:36;;;;;;;2.47;2.20;;;10.30;22.20;;;;;;5140988;27;34563;-74
2022/05/15 01:40:04;;;;;;;2.55;2.35;;;10.30;22.20;;;;;;5119589;27;34222;-74
2022/05/15 01:42:31;;;;;;;2.10;1.90;;;10.20;22.50;;;;;;5129429;27;34190;-75
2022/05/15 01:44:57;;;;;;;4.00;2.47;;;10.20;22.40;;;;;;5128740;27;34258;-75
2022/05/15 01:47:22;;;;;;;3.45;2.53;;;10.20;22.40;;;;;;5144877;27;34304;-74
2022/05/15 01:49:48;;;;;;;6.85;2.70;;;10.20;22.50;;;;;;5124478;27;34191;-75
2022/05/15 01:52:14;;;;;;;2.60;2.40;;;10.10;22.60;;;;;;5090906;27;34245;-74
2022/05/15 01:54:40;;;;;;;2.25;2.03;;;10.10;22.60;;;;;;5125392;27;34075;-75
2022/05/15 01:57:07;;;;;;;2.65;2.30;;;10.10;22.70;;;;;;5090551;27;36219;-74
2022/05/15 01:59:33;;;;;;;3.17;2.42;;;10.10;22.60;;;;;;5139718;27;34296;-74
2022/05/15 02:01:59;;;;;;;3.15;2.55;;;10.10;22.80;;;;;;5146914;27;34042;-74
2022/05/15 02:04:25;;;;;;;3.97;2.60;;;10.00;23.10;;;;;;5125775;27;34443;-75
2022/05/15 02:06:50;;;;;;;8.25;2.67;;;10.00;23.20;;;;;;5126680;27;34117;-74
2022/05/15 02:09:16;;;;;;;5.43;2.65;;;10.00;23.20;;;;;;5110489;27;34138;-75
2022/05/15 02:11:42;;;;;;;5.25;2.70;;;9.90;23.20;;;;;;5108399;27;34210;-74
2022/05/15 02:14:08;;;;;;;5.47;2.70;;;10.00;23.20;;;;;;5107847;27;34286;-75
2022/05/15 02:16:36;;;;;;;2.83;2.28;;;9.90;23.30;;;;;;5089718;27;35448;-75
2022/05/15 02:19:03;;;;;;;3.53;2.40;;;9.90;23.50;;;;;;5126327;27;34118;-74
2022/05/15 02:21:30;;;;;;;4.22;2.28;;;9.90;23.40;;;;;;5107651;27;34230;-74
2022/05/15 02:23:57;;;;;;;2.72;2.38;;;9.80;23.40;;;;;;5090848;27;34346;-74
2022/05/15 02:26:23;;;;;;;4.00;2.67;;;9.80;23.40;;;;;;5125620;27;34228;-75
2022/05/15 02:28:49;;;;;;;3.00;2.58;;;9.80;23.50;;;;;;5126074;27;34125;-74
2022/05/15 02:31:16;;;;;;;3.33;2.55;;;9.70;23.60;;;;;;5107319;27;34211;-75
2022/05/15 02:33:42;;;;;;;3.00;2.50;;;9.80;23.70;;;;;;5090191;27;34367;-74
2022/05/15 02:36:09;;;;;;;2.90;2.35;;;9.70;23.70;;;;;;5090473;27;35935;-74
2022/05/15 02:38:36;;;;;;;4.00;2.88;;;9.70;23.60;;;;;;5107215;27;34069;-74
2022/05/15 02:41:02;;;;;;;2.78;2.35;;;9.70;23.90;;;;;;5108589;27;34265;-75
2022/05/15 02:43:29;;;;;;;3.75;2.72;;;9.60;23.80;;;;;;5107436;27;34105;-75
2022/05/15 02:45:55;;;;;;;4.78;2.85;;;9.60;23.90;;;;;;5107060;27;35694;-75
2022/05/15 02:51:03;;;;;;;3.55;2.60;;;9.60;23.80;;;;;;5108910;27;34212;-75
2022/05/15 02:53:29;;;;;;;3.33;2.55;;;9.50;23.80;;;;;;5090274;27;34099;-74
2022/05/15 02:55:55;;;;;;;4.82;2.60;;;9.50;23.90;;;;;;5101834;27;36513;-75
2022/05/15 02:58:21;;;;;;;3.75;2.40;;;9.50;23.90;;;;;;5127588;27;34059;-75
2022/05/15 03:00:47;;;;;;;4.43;2.70;;;9.40;24.00;;;;;;5127020;27;34201;-75
2022/05/15 03:03:13;;;;;;;3.47;2.75;;;9.40;24.00;;;;;;5127710;27;34130;-75
2022/05/15 03:05:38;;;;;;;4.72;2.85;;;9.40;24.10;;;;;;5109959;27;36478;-75
2022/05/15 03:08:05;;;;;;;2.75;2.55;;;9.30;24.10;;;;;;5110209;27;34154;-75
2022/05/15 03:10:30;;;;;;;3.42;2.47;;;9.30;24.20;;;;;;5138985;27;34240;-75
2022/05/15 03:12:56;;;;;;;6.40;2.85;;;9.30;24.30;;;;;;5082535;28;34392;-75
2022/05/15 03:15:22;;;;;;;4.55;2.55;;;9.30;24.30;;;;;;5116615;27;35611;-75
2022/05/15 03:17:48;;;;;;;4.40;2.85;;;9.20;24.20;;;;;;5106510;27;34163;-75
2022/05/15 03:20:16;;;;;;;3.30;2.53;;;9.20;24.20;;;;;;5106792;27;34236;-75
2022/05/15 03:22:42;;;;;;;4.07;2.47;;;9.20;24.20;;;;;;5090326;27;34091;-75
2022/05/15 03:25:09;;;;;;;3.33;2.63;;;9.20;24.30;;;;;;5119712;27;34745;-74
2022/05/15 03:27:35;;;;;;;3.40;2.65;;;9.20;24.40;;;;;;5105982;27;34063;-75
2022/05/15 03:30:03;;;;;;;4.18;2.60;;;9.10;24.60;;;;;;5106092;27;34355;-75
2022/05/15 03:32:29;;;;;;;7.07;2.60;;;9.10;24.70;;;;;;5106120;27;34187;-76
2022/05/15 03:34:55;;;;;;;2.45;2.25;;;9.00;24.50;;;;;;5143855;27;36691;-75
2022/05/15 03:37:21;;;;;;;4.75;2.63;;;9.00;24.60;;;;;;5126969;27;34276;-75
2022/05/15 03:39:47;;;;;;;3.05;2.47;;;9.00;24.60;;;;;;5137032;27;34112;-75
2022/05/15 03:42:13;;;;;;;2.88;2.58;;;9.00;24.50;;;;;;5117110;27;34332;-75
2022/05/15 03:44:38;;;;;;;3.95;3.15;;;9.00;24.50;;;;;;5122814;27;36693;-75
2022/05/15 03:47:06;;;;;;;6.13;2.85;;;9.00;24.60;;;;;;5106153;27;34161;-75
2022/05/15 03:49:32;;;;;;;4.03;2.50;;;8.90;24.90;;;;;;5093566;27;34398;-74
2022/05/15 03:51:58;;;;;;;4.38;2.80;;;8.90;24.80;;;;;;5106319;27;34102;-75
2022/05/15 03:54:23;;;;;;;5.70;2.95;;;9.00;24.90;;;;;;5105821;27;35080;-75
2022/05/15 03:56:49;;;;;;;2.97;2.72;;;8.90;25.00;;;;;;5102350;28;34173;-75
2022/05/15 03:59:19;;;;;;;5.97;3.15;;;8.90;25.00;;;;;;5102359;28;34222;-75
2022/05/15 04:01:45;;;;;;;4.43;2.78;;;8.90;25.10;;;;;;5103321;28;33986;-75
2022/05/15 04:04:11;;;;;;;5.53;2.45;;;8.90;25.00;;;;;;5105272;27;34495;-75
2022/05/15 04:06:38;;;;;;;3.30;2.47;;;8.90;25.00;;;;;;5102756;28;34139;-75
2022/05/15 04:09:04;;;;;;;2.33;2.17;;;8.90;25.20;;;;;;5085455;28;34296;-75
2022/05/15 04:11:30;;;;;;;3.83;2.55;;;9.00;25.20;;;;;;5136623;27;34119;-74
2022/05/15 04:13:56;;;;;;;3.75;2.70;;;9.00;25.20;;;;;;5118874;27;36032;-75
2022/05/15 04:16:22;;;;;;;3.70;2.72;;;9.00;25.20;;;;;;5156181;27;34227;-75
2022/05/15 04:18:48;;;;;;;3.28;2.72;;;9.00;25.20;;;;;;5123027;27;34041;-75
2022/05/15 04:21:14;;;;;;;4.35;2.83;;;9.10;25.30;;;;;;5085177;28;34423;-75
2022/05/15 04:23:40;;;;;;;4.25;2.75;;;9.10;25.50;;;;;;5101983;27;36654;-75
2022/05/15 04:26:07;;;;;;;4.18;2.70;;;9.10;25.40;;;;;;5105283;27;34088;-74
2022/05/15 04:28:34;;;;;;;6.72;2.95;;;9.20;25.40;;;;;;5088240;28;34278;-75
2022/05/15 04:31:00;;;;;;;3.38;2.70;;;9.20;25.40;;;;;;5139723;27;34413;-75
2022/05/15 04:33:26;;;;;;;2.95;2.67;;;9.30;25.30;;;;;;5121652;27;35488;-75
2022/05/15 04:35:52;;;;;;;4.60;3.30;;;9.30;25.40;;;;;;5158129;27;34203;-75
2022/05/15 04:38:18;;;;;;;3.22;2.90;;;9.40;25.30;;;;;;5105584;27;34334;-75
2022/05/15 04:40:45;;;;;;;3.83;2.58;;;9.40;25.30;;;;;;5128410;27;34545;-75
2022/05/15 04:43:11;;;;;;;7.10;3.30;;;9.50;25.50;;;;;;5108585;27;35480;-75
2022/05/15 04:45:37;;;;;;;4.95;3.10;;;9.50;25.40;;;;;;5108314;27;34348;-75
2022/05/15 04:48:03;;;;;;;4.30;2.88;;;9.60;25.40;;;;;;5108758;27;34284;-75
2022/05/15 04:50:29;;;;;;;3.85;3.10;;;9.70;25.50;;;;;;5118343;27;34137;-75
2022/05/15 04:52:55;;;;;;;4.97;2.92;;;9.80;25.40;;;;;;5126784;27;34125;-75
2022/05/15 04:55:21;;;;;;;3.58;2.92;;;9.90;25.50;;;;;;5091540;27;34261;-75
2022/05/15 04:57:47;;;;;;;4.28;2.85;;;10.00;25.40;;;;;;5126393;27;34322;-75
2022/05/15 05:00:17;;;;;;;5.72;3.10;;;10.10;25.50;;;;;;5091260;27;34393;-75
2022/05/15 05:02:43;;;;;;;4.95;3.10;;;10.20;25.60;;;;;;5142800;27;36547;-76
2022/05/15 05:05:10;;;;;;;3.58;2.70;;;10.40;25.30;;;;;;5123808;27;34131;-75
2022/05/15 05:07:36;;;;;;;5.45;3.35;;;10.50;25.30;;;;;;5128598;27;34246;-76
2022/05/15 05:10:04;;;;;;;7.88;3.38;;;10.70;25.20;;;;;;5141086;27;34230;-75
2022/05/15 05:12:29;;;;;;;4.15;3.17;;;11.00;25.10;;;;;;5107702;27;36237;-75
2022/05/15 05:14:57;;;;;;;4.38;3.28;;;11.50;24.50;;;;;;5098301;27;34229;-76
2022/05/15 05:17:24;;;;;;;7.93;3.50;;;12.00;23.90;;;;;;5128605;27;34302;-76
2022/05/15 05:19:50;;;;;;;6.45;3.40;;;12.50;23.20;;;;;;5128846;27;34391;-75
2022/05/15 05:22:16;;;;;;;4.32;2.80;;;12.90;22.30;;;;;;5111186;27;35772;-76
2022/05/15 05:24:42;;;;;;;4.18;3.17;;;13.30;21.70;;;;;;5128306;27;34110;-76
2022/05/15 05:27:08;;;;;;;5.07;3.38;;;13.80;21.20;;;;;;5124977;27;34389;-75
2022/05/15 05:29:34;;;;;;;4.82;3.08;;;14.20;20.70;;;;;;5128427;27;34128;-75
2022/05/15 05:32:00;;;;;;;3.20;2.90;;;14.50;20.10;;;;;;5126139;27;34104;-76
2022/05/15 05:34:26;;;;;;;3.67;3.10;;;14.90;20.00;;;;;;5107432;27;34001;-76
2022/05/15 05:36:52;;;;;;;6.35;3.08;;;15.20;19.70;;;;;;5126116;27;33995;-75
2022/05/15 05:39:19;;;;;;;3.47;3.10;;;15.50;19.30;;;;;;5108323;27;34432;-75
2022/05/15 05:41:44;;;;;;;5.65;3.28;;;15.60;18.90;;;;;;5108080;27;34426;-75
2022/05/15 05:44:11;;;;;;;8.45;3.40;;;15.80;18.80;;;;;;5126196;27;34197;-76
2022/05/15 05:46:37;;;;;;;6.07;3.15;;;15.90;18.80;;;;;;5130389;27;34188;-76
2022/05/15 05:49:03;;;;;;;5.60;3.08;;;15.90;18.80;;;;;;5111125;27;34438;-75
2022/05/15 05:51:29;;;;;;;4.70;2.80;;;15.90;18.90;;;;;;5107439;27;35918;-76
2022/05/15 05:53:55;;;;;;;3.80;2.95;;;15.90;19.00;;;;;;5126039;27;34254;-76
2022/05/15 05:56:21;;;;;;;4.70;3.00;;;15.90;19.20;;;;;;5090552;27;34251;-76
2022/05/15 05:58:47;;;;;;;3.70;2.85;;;15.90;19.30;;;;;;5090752;27;34562;-76
2022/05/15 06:01:13;;;;;;;4.68;3.50;;;15.90;19.90;;;;;;5127961;27;36527;-75
2022/05/15 06:06:21;;;;;;;3.05;2.72;;;16.00;19.50;;;;;;5145833;27;34200;-76
2022/05/15 06:08:47;;;;;;;3.95;2.60;;;16.10;19.40;;;;;;5127805;27;34119;-76
2022/05/15 06:11:13;;;;;;;3.75;3.00;;;16.30;19.20;;;;;;5110018;27;35797;-76
2022/05/15 06:13:39;;;;;;;6.00;3.30;;;16.50;18.90;;;;;;5090384;27;34194;-77
2022/05/15 06:16:07;;;;;;;3.63;3.20;;;16.80;18.60;;;;;;5106900;27;34261;-75
2022/05/15 06:18:34;;;;;;;3.40;3.00;;;17.10;18.30;;;;;;5090653;27;34409;-75
2022/05/15 06:20:59;;;;;;;4.28;3.20;;;17.40;17.80;;;;;;5107483;27;35221;-76
2022/05/15 06:23:25;;;;;;;3.80;2.92;;;17.70;17.40;;;;;;5107089;27;34152;-75
2022/05/15 06:25:51;;;;;;;3.20;2.90;;;18.10;16.90;;;;;;5125342;27;34108;-76
2022/05/15 06:28:17;;;;;;;4.43;3.20;;;18.40;16.30;;;;;;5103275;27;34027;-76
2022/05/15 06:30:43;;;;;;;5.43;3.00;;;18.70;15.80;;;;;;5127351;27;36071;-75
2022/05/15 06:33:09;;;;;;;5.25;2.60;;;19.10;15.30;;;;;;5110611;27;34153;-76
2022/05/15 06:35:35;;;;;;;3.00;2.55;;;19.50;14.90;;;;;;5110219;27;34424;-75
2022/05/15 06:38:04;;;;;;;4.15;2.70;;;19.80;14.40;;;;;;5146041;27;34121;-76
2022/05/15 06:40:31;;;;;;;3.15;2.70;;;20.20;14.00;;;;;;5141743;27;35187;-76
2022/05/15 06:42:58;;;;;;;4.97;2.88;;;20.40;13.90;;;;;;5125074;27;34291;-76
2022/05/15 06:45:25;;;;;;;5.20;2.60;;;20.70;13.90;;;;;;5124988;27;34112;-76
2022/05/15 06:47:51;;;;;;;3.55;2.60;;;20.90;13.70;;;;;;5106377;27;34091;-76
2022/05/15 06:50:17;;;;;;;4.20;2.78;;;21.10;13.50;;;;;;5106260;27;36414;-76
2022/05/15 06:52:43;;;;;;;5.72;2.67;;;21.40;13.40;;;;;;5142231;27;34119;-76
2022/05/15 06:55:13;;;;;;;3.17;2.80;;;21.50;13.10;;;;;;5127086;27;34073;-76
2022/05/15 06:57:39;;;;;;;5.53;2.83;;;21.70;12.80;;;;;;5144958;27;34198;-76
2022/05/15 07:00:10;;;;;;;6.40;2.83;;;21.90;12.60;;;;;;5110573;27;34790;-76
2022/05/15 07:02:36;;;;;;;5.22;2.95;;;22.00;12.00;;;;;;5145534;27;34388;-76
2022/05/15 07:05:04;;;;;;;4.35;2.90;;;22.30;12.20;;;;;;5136666;27;34357;-76
2022/05/15 07:07:30;;;;;;;4.75;3.00;;;22.60;12.20;;;;;;5114969;27;34177;-75
2022/05/15 07:09:56;;;;;;;3.97;2.80;;;22.80;12.20;;;;;;5126673;27;36374;-76
2022/05/15 07:12:24;;;;;;;3.35;2.40;;;22.90;11.90;;;;;;5113689;27;34237;-77
2022/05/15 07:14:50;;;;;;;3.65;2.30;;;23.10;11.30;;;;;;5110244;27;34244;-76
2022/05/15 07:17:16;;;;;;;11.20;2.67;;;23.40;11.20;;;;;;5145124;27;34284;-76
2022/05/15 07:19:42;;;;;;;6.03;2.40;;;23.50;11.00;;;;;;5109529;27;35846;-77
2022/05/15 07:22:10;;;;;;;7.75;2.33;;;23.80;10.80;;;;;;5127530;27;34177;-76
2022/05/15 07:24:38;;;;;;;5.57;2.47;;;24.00;10.50;;;;;;5122411;27;34261;-77
2022/05/15 07:27:07;;;;;;;3.13;2.42;;;24.10;10.20;;;;;;5106497;27;33991;-76
2022/05/15 07:29:36;;;;;;;6.18;2.55;;;24.20;10.20;;;;;;5120164;27;35677;-77
2022/05/15 07:32:04;;;;;;;3.30;2.40;;;24.50;10.60;;;;;;5145047;27;34155;-76
2022/05/15 07:34:30;;;;;;;5.45;2.15;;;24.80;9.80;;;;;;5110209;27;34228;-76
2022/05/15 07:36:56;;;;;;;6.03;2.30;;;25.10;9.30;;;;;;5145573;27;34430;-76
2022/05/15 07:39:22;;;;;;;3.25;1.88;;;25.40;8.90;;;;;;5128793;27;35981;-76
2022/05/15 07:41:49;;;;;;;3.45;2.33;;;25.60;8.50;;;;;;5118425;27;34139;-78
2022/05/15 07:44:15;;;;;;;10.43;2.67;;;25.60;8.10;;;;;;5126587;27;34228;-76
2022/05/15 07:46:42;;;;;;;3.70;2.08;;;25.60;8.00;;;;;;5126684;27;34090;-77
2022/05/15 07:49:08;;;;;;;2.67;2.15;;;25.60;8.00;;;;;;5127163;27;34502;-76
2022/05/15 07:51:35;;;;;;;3.25;2.20;;;25.70;8.20;;;;;;5163470;27;34064;-76
2022/05/15 07:54:02;;;;;;;5.63;2.10;;;25.70;7.80;;;;;;5166872;27;34057;-77
2022/05/15 07:56:28;;;;;;;7.03;2.17;;;25.90;7.50;;;;;;5147759;27;34366;-77
2022/05/15 07:58:54;;;;;;;4.70;2.10;;;26.10;7.50;;;;;;5146626;27;34485;-76
2022/05/15 08:01:20;;;;;;;4.20;1.88;;;26.30;7.10;;;;;;5126195;27;34276;-76
2022/05/15 08:03:47;;;;;;;4.70;2.03;;;26.50;6.80;;;;;;5129592;27;34371;-75
2022/05/15 08:08:58;;;;;;;3.40;2.10;;;26.60;5.80;;;;;;5148299;27;34468;-76
2022/05/15 08:11:28;;;;;;;2.22;1.65;;;26.80;6.00;;;;;;5131034;27;34178;-76
2022/05/15 08:13:56;;;;;;;3.85;2.00;;;27.00;6.40;;;;;;5113243;27;34695;-77
2022/05/15 08:16:23;;;;;;;4.10;1.80;;;27.30;5.90;;;;;;5109631;27;34340;-76
2022/05/15 08:24:12;;;;;;;2.15;1.75;;;27.80;4.90;;;;;;5131613;27;34168;-77
2022/05/15 08:26:37;;;;;;;3.47;1.80;;;28.00;5.00;;;;;;5109320;27;34238;-76
2022/05/15 08:29:03;;;;;;;1.75;1.55;;;28.10;4.80;;;;;;5123618;27;36556;-77
2022/05/15 08:31:30;;;;;;;3.25;1.58;;;28.30;4.40;;;;;;5134598;27;34082;-77
2022/05/15 08:33:57;;;;;;;2.70;1.58;;;28.40;4.00;;;;;;5130013;27;34307;-76
2022/05/15 08:36:23;;;;;;;2.47;1.77;;;28.60;3.60;;;;;;5128473;27;34232;-75
2022/05/15 08:38:49;;;;;;;4.97;1.92;;;28.50;3.30;;;;;;5147711;27;34419;-76
2022/05/15 08:41:29;;;;;;;4.47;2.00;;;28.50;3.10;;;;;;5126961;27;34078;-76
2022/05/15 08:44:10;;;;;;;3.78;1.90;;;28.50;1.10;;;;;;5123980;27;34216;-76
2022/05/15 08:47:00;;;;;;;5.25;1.80;;;28.60;1.00;;;;;;5112919;27;34101;-79
2022/05/15 08:49:36;;;;;;;5.07;1.60;;;28.60;1.40;;;;;;5122634;27;35680;-75
2022/05/15 08:52:17;;;;;;;4.53;1.70;;;28.80;1.70;;;;;;5133970;27;34444;-76
2022/05/15 08:55:01;;;;;;;5.00;1.60;;;29.10;1.00;;;;;;5132795;27;34459;-77
2022/05/15 08:57:40;;;;;;;3.15;1.33;;;29.40;1.00;;;;;;5147869;27;34562;-76
2022/05/15 09:00:11;;;;;;;4.05;1.65;;;29.40;1.00;;;;;;5129513;27;34109;-77
2022/05/15 09:02:40;;;;;;;2.65;1.50;;;29.40;1.70;;;;;;5119433;27;34064;-76
2022/05/15 09:05:08;;;;;;;2.97;1.55;;;29.20;1.60;;;;;;5125439;27;34223;-77
2022/05/15 09:07:51;;;;;;;6.40;1.38;;;29.20;2.30;;;;;;5117701;27;34343;-77
2022/05/15 09:10:42;;;;;;;1.45;1.25;;;29.40;1.00;;;;;;5121952;27;35637;-77
2022/05/15 09:13:12;;;;;;;1.27;1.17;;;29.50;1.00;;;;;;5106710;27;35719;-78
2022/05/15 09:15:43;;;;;;;2.33;1.40;;;29.50;1.30;;;;;;5127234;27;34075;-78
2022/05/15 09:18:15;;;;;;;3.17;1.45;;;29.50;1.00;;;;;;5126450;27;34197;-77
2022/05/15 09:21:03;;;;;;;3.13;1.40;;;29.30;1.00;;;;;;5126571;27;34240;-77
2022/05/15 09:23:38;;;;;;;2.30;1.10;;;29.30;1.00;;;;;;5104306;27;34140;-77
2022/05/15 09:26:19;;;;;;;2.67;1.13;;;29.20;1.00;;;;;;5096529;27;34222;-78
2022/05/15 09:28:49;;;;;;;2.53;1.30;;;29.00;1.00;;;;;;5130024;27;34147;-78
2022/05/15 09:31:29;;;;;;;5.28;1.45;;;28.80;1.00;;;;;;5130085;27;35762;-78
2022/05/15 09:34:29;;;;;;;2.25;1.40;;;28.80;1.00;;;;;;5147941;27;34191;-77
2022/05/15 09:38:27;;;;;;;13.50;1.50;;;28.70;1.00;;;;;;5124867;27;34247;-76
2022/05/15 09:39:48;;;;;;;2.50;1.27;;;28.70;1.00;;;;;;5125363;27;34161;-77
2022/05/15 09:45:28;;;;;;;2.53;1.48;;;29.50;1.00;;;;;;5146288;27;34109;-78
2022/05/15 09:48:06;;;;;;;1.40;1.30;;;29.80;1.00;;;;;;5114872;27;34282;-77
2022/05/15 09:50:55;;;;;;;1.30;1.08;;;30.00;1.00;;;;;;5127557;27;34463;-76
2022/05/15 09:53:33;;;;;;;2.35;1.20;;;30.00;1.00;;;;;;5112165;27;35631;-76
2022/05/15 09:56:06;;;;;;;3.53;1.15;;;30.00;1.00;;;;;;5148888;27;34055;-77
2022/05/15 09:58:43;;;;;;;2.55;1.00;;;30.20;1.00;;;;;;5128536;27;34128;-77
2022/05/15 10:01:20;;;;;;;4.78;1.30;;;30.40;1.00;;;;;;5119794;27;34652;-78
2022/05/15 10:03:52;;;;;;;3.22;1.20;;;30.50;1.00;;;;;;5093210;27;35831;-77
2022/05/15 10:06:20;;;;;;;3.65;0.98;;;30.50;1.00;;;;;;5100153;27;34390;-76
2022/05/15 10:09:04;;;;;;;3.30;1.20;;;30.30;1.00;;;;;;5109115;27;34134;-76
2022/05/15 10:11:31;;;;;;;5.47;1.10;;;30.30;1.00;;;;;;5096314;27;34239;-77
2022/05/15 10:13:59;;;;;;;1.70;1.00;;;30.40;1.00;;;;;;5129963;27;35639;-77
2022/05/15 10:16:37;;;;;;;1.15;1.02;;;30.50;1.00;;;;;;5145093;27;34245;-78
2022/05/15 10:19:09;;;;;;;1.75;1.10;;;30.50;1.00;;;;;;5067939;28;33796;-79
2022/05/15 10:21:41;;;;;;;2.78;1.20;;;30.40;1.00;;;;;;5071634;28;33978;-76
2022/05/15 10:24:13;;;;;;;1.25;1.05;;;30.00;1.00;;;;;;5068480;28;35355;-76
2022/05/15 10:27:04;;;;;;;1.90;1.10;;;29.80;1.00;;;;;;5069079;28;34360;-77
2022/05/15 10:29:45;;;;;;;2.10;1.50;;;30.00;1.00;;;;;;5070327;28;34321;-77
2022/05/15 10:32:17;;;;;;;2.65;1.13;;;30.20;1.00;;;;;;5088411;28;34171;-76
2022/05/15 10:34:44;;;;;;;1.13;1.00;;;30.40;1.00;;;;;;5088141;28;35627;-76
2022/05/15 10:37:30;;;;;;;1.67;1.02;;;30.50;1.00;;;;;;5107091;28;34137;-76
2022/05/15 10:40:14;;;;;;;1.92;0.93;;;30.50;1.00;;;;;;5071262;28;34324;-75
2022/05/15 10:43:04;;;;;;;1.95;1.10;;;30.60;1.00;;;;;;5088019;28;34214;-75
2022/05/15 10:45:46;;;;;;;2.17;1.02;;;30.70;1.00;;;;;;5106059;28;34624;-78
2022/05/15 10:48:36;;;;;;;2.20;1.15;;;30.70;1.00;;;;;;5072084;28;34086;-76
2022/05/15 10:51:22;;;;;;;1.00;0.93;;;30.70;1.00;;;;;;5094173;28;34208;-76
2022/05/15 10:57:21;;;;;;;3.58;1.25;;;30.60;1.00;;;;;;5102775;28;34265;-77
2022/05/15 11:00:05;;;;;;;4.03;1.38;;;30.60;1.00;;;;;;5068978;28;34363;-76
2022/05/15 11:03:01;;;;;;;4.53;0.82;;;30.70;1.00;;;;;;5056667;28;34144;-76
2022/05/15 11:05:58;;;;;;;2.45;0.85;;;30.60;1.00;;;;;;5108745;27;34301;-76
2022/05/15 11:08:45;;;;;;;2.60;1.05;;;30.70;1.00;;;;;;5079059;28;36702;-76
2022/05/15 11:11:22;;;;;;;1.10;1.00;;;30.70;1.00;;;;;;5086190;28;34184;-76
2022/05/15 11:13:55;;;;;;;2.60;1.60;;;30.70;1.00;;;;;;5066517;28;34266;-76
2022/05/15 11:16:52;;;;;;;1.83;1.10;;;30.80;1.00;;;;;;5094075;28;34317;-77
2022/05/15 11:19:36;;;;;;;3.08;1.00;;;30.90;1.00;;;;;;5106114;27;34480;-77
2022/05/15 11:22:31;;;;;;;4.50;1.08;;;31.00;1.00;;;;;;5083988;28;34199;-77
2022/05/15 11:25:18;;;;;;;2.38;1.00;;;31.00;1.00;;;;;;5098971;27;34243;-77
2022/05/15 11:27:53;;;;;;;1.08;0.90;;;31.10;1.00;;;;;;5108643;27;34419;-75
2022/05/15 11:30:35;;;;;;;1.67;0.90;;;31.10;1.00;;;;;;5092439;27;35604;-79
2022/05/15 11:33:08;;;;;;;1.40;1.10;;;31.10;1.00;;;;;;5106476;27;34117;-77
2022/05/15 11:35:38;;;;;;;2.75;0.93;;;31.00;1.00;;;;;;5081206;28;34483;-79
2022/05/15 11:38:23;;;;;;;1.27;0.90;;;31.00;1.00;;;;;;5090518;28;34404;-77
2022/05/15 11:40:52;;;;;;;2.10;1.00;;;30.90;1.00;;;;;;5106958;27;34437;-76
2022/05/15 11:43:34;;;;;;;1.20;0.80;;;30.90;1.00;;;;;;5108893;28;34380;-77
2022/05/15 11:46:03;;;;;;;1.48;0.90;;;31.20;1.00;;;;;;5125029;27;34009;-76
2022/05/15 11:48:50;;;;;;;0.93;0.88;;;31.20;1.00;;;;;;5118021;27;34228;-76
2022/05/15 11:51:29;;;;;;;1.83;0.80;;;31.30;1.00;;;;;;5089462;27;34407;-77
2022/05/15 11:54:01;;;;;;;1.35;0.70;;;31.40;1.00;;;;;;5119000;27;34262;-79
2022/05/15 11:56:38;;;;;;;1.67;1.20;;;31.50;1.00;;;;;;5099016;27;34464;-76
2022/05/15 11:59:22;;;;;;;3.08;0.95;;;31.70;1.00;;;;;;5111134;27;34462;-77
2022/05/15 12:01:52;;;;;;;3.58;1.10;;;31.80;1.00;;;;;;5074984;28;36516;-78
2022/05/15 12:04:40;;;;;;;2.47;0.95;;;31.90;1.00;;;;;;5091834;28;34328;-78
2022/05/15 12:07:28;;;;;;;1.45;0.98;;;31.90;1.00;;;;;;5110698;27;34398;-77
2022/05/15 12:09:54;;;;;;;1.10;0.75;;;31.80;1.00;;;;;;5107959;27;34201;-78
2022/05/15 12:12:52;;;;;;;1.55;1.00;;;31.80;1.00;;;;;;5099133;28;35607;-77
2022/05/15 12:15:35;;;;;;;2.88;1.00;;;31.80;1.00;;;;;;5089639;27;34392;-78
2022/05/15 12:18:15;;;;;;;1.23;1.05;;;32.00;1.00;;;;;;5152846;27;34101;-77
2022/05/15 12:20:48;;;;;;;1.75;0.90;;;32.10;1.00;;;;;;5079981;27;34096;-76
2022/05/15 12:23:30;;;;;;;1.55;1.10;;;32.10;1.00;;;;;;5122747;27;34449;-75
2022/05/15 12:26:00;;;;;;;1.73;1.00;;;32.10;1.00;;;;;;5091768;28;34136;-76
2022/05/15 12:28:51;;;;;;;1.30;0.80;;;32.10;1.00;;;;;;5114276;27;34178;-75
2022/05/15 12:31:34;;;;;;;2.08;0.90;;;32.10;1.00;;;;;;5099507;27;34068;-77
2022/05/15 12:34:13;;;;;;;2.50;0.80;;;32.10;1.00;;;;;;5127047;27;35946;-76
2022/05/15 12:36:44;;;;;;;3.10;1.02;;;32.20;1.00;;;;;;5091749;27;34486;-76
2022/05/15 12:39:15;;;;;;;1.10;1.00;;;32.10;1.00;;;;;;5125167;27;34125;-77
2022/05/15 12:41:44;;;;;;;1.25;1.00;;;32.00;1.00;;;;;;5105308;27;34119;-76
2022/05/15 12:44:11;;;;;;;2.05;1.10;;;32.10;1.00;;;;;;5105224;27;35542;-76
2022/05/15 12:46:42;;;;;;;2.88;1.00;;;32.10;1.00;;;;;;5106729;27;34446;-75
2022/05/15 12:49:09;;;;;;;1.92;1.02;;;32.20;1.00;;;;;;5146054;27;34213;-77
2022/05/15 12:51:40;;;;;;;1.50;1.00;;;32.30;1.00;;;;;;5120826;27;34249;-75
2022/05/15 12:54:24;;;;;;;2.08;1.02;;;32.10;1.00;;;;;;5093537;27;35745;-77
2022/05/15 12:56:59;;;;;;;1.58;1.00;;;32.20;1.00;;;;;;5122021;27;34229;-76
2022/05/15 12:59:27;;;;;;;1.17;1.00;;;32.20;1.00;;;;;;5089226;27;34178;-76
2022/05/15 13:01:53;;;;;;;6.25;1.58;;;32.10;1.00;;;;;;5105241;28;34340;-77
2022/05/15 13:04:23;;;;;;;2.90;1.08;;;32.10;1.00;;;;;;5121170;27;36484;-77
2022/05/15 13:06:53;;;;;;;2.97;1.20;;;32.00;1.00;;;;;;5093389;27;34233;-78
2022/05/15 13:09:22;;;;;;;0.82;0.70;;;32.00;1.00;;;;;;5089615;27;34094;-76
2022/05/15 13:11:51;;;;;;;1.98;0.90;;;31.80;1.00;;;;;;5123777;27;34503;-78
2022/05/15 13:14:28;;;;;;;1.17;1.05;;;31.80;1.00;;;;;;5101343;27;34231;-76
2022/05/15 13:16:55;;;;;;;2.97;0.90;;;31.90;1.00;;;;;;5123607;27;34486;-77
2022/05/15 13:19:28;;;;;;;2.72;0.90;;;32.00;1.00;;;;;;5128131;27;34346;-78
2022/05/15 13:21:56;;;;;;;1.42;0.90;;;32.10;1.00;;;;;;5125320;27;34387;-77
2022/05/15 13:24:24;;;;;;;2.47;1.00;;;32.10;1.00;;;;;;5103962;28;36272;-76
2022/05/15 13:26:51;;;;;;;1.77;0.93;;;32.10;1.00;;;;;;5123261;27;34289;-76
2022/05/15 13:29:21;;;;;;;1.00;0.80;;;32.20;1.00;;;;;;5117374;27;34265;-77